createdAt,value
2019-02-04T00:00:14.345Z,87.07
2019-02-04T00:01:14.320Z,87.07
2019-02-04T00:02:14.298Z,86.85
2019-02-04T00:03:14.289Z,87.27
2019-02-04T00:04:14.278Z,87.07
2019-02-04T00:05:14.286Z,86.96
2019-02-04T00:06:14.260Z,86.65
2019-02-04T00:07:14.250Z,86.96
2019-02-04T00:08:14.236Z,86.96
2019-02-04T00:09:14.228Z,87.21
2019-02-04T00:10:14.232Z,86.90
2019-02-04T00:11:14.207Z,87.21
2019-02-04T00:12:14.199Z,87.52
2019-02-04T00:13:14.183Z,87.21
2019-02-04T00:14:14.173Z,87.31
2019-02-04T00:15:14.177Z,87.42
2019-02-04T00:16:14.150Z,87.21
2019-02-04T00:17:14.138Z,87.17
2019-02-04T00:18:14.135Z,86.96
2019-02-04T00:19:14.131Z,87.07
2019-02-04T00:20:14.129Z,86.33
2019-02-04T00:21:14.098Z,85.67
2019-02-04T00:22:14.089Z,86.13
2019-02-04T00:23:14.076Z,86.96
2019-02-04T00:24:14.065Z,87.07
2019-02-04T00:25:14.085Z,87.17
2019-02-04T00:26:14.043Z,87.69
2019-02-04T00:27:14.033Z,87.55
2019-02-04T00:28:14.022Z,87.45
2019-02-04T00:29:14.012Z,87.13
2019-02-04T00:30:14.024Z,86.71
2019-02-04T00:31:13.994Z,87.02
2019-02-04T07:08:27.485Z,83.52
2019-02-04T07:09:27.441Z,83.94
2019-02-04T07:10:27.427Z,84.11
2019-02-04T07:11:27.436Z,84.11
2019-02-04T07:12:27.415Z,84.00
2019-02-04T07:13:27.402Z,84.00
2019-02-04T07:14:27.391Z,83.59
2019-02-04T07:15:27.392Z,83.69
2019-02-04T07:16:27.383Z,84.32
2019-02-04T07:17:27.354Z,83.27
2019-02-04T07:18:27.353Z,83.59
2019-02-04T07:19:27.338Z,83.69
2019-02-04T07:20:27.323Z,83.69
2019-02-04T07:21:27.338Z,84.00
2019-02-04T07:22:27.307Z,83.69
2019-02-04T07:23:27.319Z,83.27
2019-02-04T07:24:27.280Z,83.27
2019-02-04T07:25:27.274Z,83.38
2019-02-04T07:26:27.278Z,83.13
2019-02-04T07:27:27.250Z,83.27
2019-02-04T07:28:27.240Z,83.27
2019-02-04T07:29:27.239Z,83.17
2019-02-04T07:30:27.223Z,83.06
2019-02-04T07:31:27.229Z,83.17
2019-02-04T07:32:27.198Z,82.82
2019-02-04T07:33:27.186Z,83.03
2019-02-04T07:34:27.175Z,82.82
2019-02-04T07:35:27.244Z,82.50
2019-02-04T07:36:27.175Z,82.82
2019-02-04T07:37:27.152Z,82.92
2019-02-04T07:38:27.134Z,83.23
2019-02-04T07:39:27.127Z,83.03
2019-02-04T07:40:27.119Z,83.13
2019-02-04T07:41:27.129Z,82.92
2019-02-04T07:42:27.117Z,82.67
2019-02-04T07:43:27.083Z,82.57
2019-02-04T07:44:27.069Z,82.05
2019-02-04T07:46:42.752Z,82.05
2019-02-04T07:47:42.729Z,82.29
2019-02-04T07:48:42.729Z,81.95
2019-02-04T07:49:42.706Z,82.36
2019-02-04T07:50:42.696Z,81.95
2019-02-04T07:51:42.701Z,82.15
2019-02-04T07:52:42.679Z,82.15
2019-02-04T07:53:42.791Z,82.29
2019-02-04T07:54:42.666Z,81.73
2019-02-04T07:55:42.655Z,82.05
2019-02-04T07:56:42.653Z,82.15
2019-02-04T07:57:42.626Z,81.95
2019-02-04T07:58:42.623Z,82.05
2019-02-04T07:59:42.657Z,81.32
2019-02-04T08:00:42.595Z,81.63
2019-02-04T08:01:42.594Z,81.84
2019-02-04T08:02:42.567Z,81.95
2019-02-04T08:03:42.559Z,81.38
2019-02-04T08:04:42.594Z,81.07
2019-02-04T08:05:42.540Z,81.38
2019-02-04T08:06:42.546Z,81.28
2019-02-04T08:07:42.607Z,80.86
2019-02-04T08:08:42.502Z,81.38
2019-02-04T08:09:42.493Z,81.59
2019-02-04T08:10:42.533Z,81.18
2019-02-04T08:11:42.499Z,81.28
2019-02-04T08:12:42.459Z,81.18
2019-02-04T08:13:42.464Z,81.18
2019-02-04T08:14:45.154Z,80.86
2019-02-04T08:15:42.434Z,81.03
2019-02-04T08:16:42.439Z,80.76
2019-02-04T08:17:42.408Z,80.76
2019-02-04T08:18:42.395Z,80.34
2019-02-04T08:19:47.020Z,80.55
2019-02-04T08:20:43.388Z,80.13
2019-02-04T08:21:42.393Z,80.30
2019-02-04T08:22:42.352Z,80.72
2019-02-04T08:23:42.342Z,80.65
2019-02-04T08:24:42.331Z,80.62
2019-02-04T08:25:42.322Z,80.20
2019-02-04T08:26:42.322Z,79.57
2019-02-04T08:27:42.320Z,79.88
2019-02-04T08:28:42.295Z,79.99
2019-02-04T08:29:42.278Z,79.43
2019-02-04T08:30:42.267Z,79.22
2019-02-04T08:31:42.255Z,78.77
2019-02-04T08:32:42.355Z,78.56
2019-02-04T08:33:42.237Z,78.45
2019-02-04T08:34:42.227Z,78.35
2019-02-04T08:35:42.229Z,78.00
2019-02-04T08:36:44.412Z,77.58
2019-02-04T08:37:42.208Z,77.58
2019-02-04T08:38:42.196Z,77.48
2019-02-04T08:39:42.175Z,77.34
2019-02-04T08:40:42.174Z,77.45
2019-02-04T08:41:42.148Z,77.13
2019-02-04T08:42:42.153Z,76.82
2019-02-04T08:43:42.125Z,76.16
2019-02-04T08:44:42.113Z,75.95
2019-02-04T08:45:42.120Z,75.64
2019-02-04T08:46:42.098Z,75.85
2019-02-04T08:47:42.107Z,75.19
2019-02-04T08:48:42.075Z,75.71
2019-02-04T08:49:42.062Z,74.87
2019-02-04T08:50:42.050Z,74.46
2019-02-04T08:51:42.281Z,74.43
2019-02-04T08:52:42.051Z,74.01
2019-02-04T08:53:42.019Z,74.21
2019-02-04T08:54:42.019Z,74.01
2019-02-04T08:55:41.998Z,73.14
2019-02-04T08:56:43.047Z,73.46
2019-02-04T08:57:42.019Z,73.56
2019-02-04T08:58:41.969Z,73.25
2019-02-04T08:59:41.956Z,73.46
2019-02-04T09:00:41.942Z,73.46
2019-02-04T09:01:41.995Z,73.66
2019-02-04T09:02:41.926Z,73.46
2019-02-04T09:03:41.927Z,73.25
2019-02-04T09:04:41.901Z,73.69
2019-02-04T09:05:41.890Z,73.35
2019-02-04T09:06:41.878Z,73.38
2019-02-04T09:07:41.871Z,73.90
2019-02-04T09:08:41.887Z,73.35
2019-02-04T09:09:41.850Z,73.66
2019-02-04T09:10:41.839Z,73.35
2019-02-04T09:11:41.826Z,73.35
2019-02-04T09:12:41.814Z,72.93
2019-02-04T09:13:41.820Z,73.28
2019-02-04T09:14:41.835Z,73.56
2019-02-04T09:15:41.794Z,73.25
2019-02-04T09:16:41.775Z,73.35
2019-02-04T09:17:41.760Z,73.25
2019-02-04T09:18:44.747Z,73.49
2019-02-04T09:19:41.747Z,73.80
2019-02-04T09:20:41.729Z,74.11
2019-02-04T09:21:41.732Z,73.80
2019-02-04T09:22:41.734Z,73.80
2019-02-04T09:23:41.747Z,73.28
2019-02-04T09:24:41.687Z,73.80
2019-02-04T09:25:41.695Z,73.56
2019-02-04T09:26:41.664Z,73.35
2019-02-04T09:27:41.658Z,74.39
2019-02-04T09:28:41.681Z,73.46
2019-02-04T09:29:41.646Z,73.46
2019-02-04T09:30:41.622Z,73.35
2019-02-04T09:31:41.614Z,73.46
2019-02-04T09:32:41.601Z,73.42
2019-02-04T09:33:41.593Z,73.11
2019-02-04T09:34:41.648Z,73.11
2019-02-04T09:35:41.569Z,72.80
2019-02-04T09:36:41.562Z,73.00
2019-02-04T09:37:41.546Z,73.21
2019-02-04T09:38:41.538Z,73.00
2019-02-04T09:39:41.541Z,72.80
2019-02-04T09:40:41.535Z,73.00
2019-02-04T09:41:41.532Z,72.80
2019-02-04T09:42:41.505Z,72.69
2019-02-04T09:43:41.499Z,73.21
2019-02-04T09:44:41.507Z,73.00
2019-02-04T09:45:41.466Z,72.80
2019-02-04T09:46:41.459Z,73.07
2019-02-04T09:47:41.463Z,72.86
2019-02-04T09:48:41.429Z,72.45
2019-02-04T09:49:41.451Z,72.45
2019-02-04T09:50:41.429Z,72.55
2019-02-04T09:51:41.399Z,72.31
2019-02-04T09:52:41.405Z,72.42
2019-02-04T09:53:41.390Z,72.14
2019-02-04T09:54:41.396Z,72.14
2019-02-04T09:55:41.360Z,72.34
2019-02-04T09:56:41.343Z,72.11
2019-02-04T09:57:41.351Z,72.21
2019-02-04T09:58:41.331Z,72.11
2019-02-04T09:59:41.341Z,72.31
2019-02-04T10:00:41.318Z,71.38
2019-02-04T10:01:41.328Z,71.34
2019-02-04T10:02:41.278Z,71.48
2019-02-04T10:03:41.294Z,72.07
2019-02-04T10:04:41.277Z,71.55
2019-02-04T10:05:41.245Z,71.34
2019-02-04T10:06:41.251Z,71.45
2019-02-04T10:07:41.243Z,71.55
2019-02-04T10:08:41.215Z,71.34
2019-02-04T10:09:41.314Z,70.72
2019-02-04T10:10:41.271Z,71.24
2019-02-04T10:11:41.205Z,71.38
2019-02-04T10:12:41.176Z,71.55
2019-02-04T10:13:41.163Z,71.42
2019-02-04T10:14:41.185Z,71.14
2019-02-04T10:15:41.140Z,70.51
2019-02-04T10:16:41.132Z,70.28
2019-02-04T10:17:41.157Z,71.00
2019-02-04T10:18:41.131Z,71.08
2019-02-04T10:19:41.121Z,70.04
2019-02-04T10:20:41.110Z,69.52
2019-02-04T10:21:41.075Z,69.27
2019-02-04T10:22:41.066Z,69.07
2019-02-04T10:23:41.095Z,68.55
2019-02-04T10:24:41.074Z,68.96
2019-02-04T10:25:41.074Z,68.86
2019-02-04T10:26:41.029Z,68.65
2019-02-04T10:27:41.062Z,68.03
2019-02-04T10:28:41.021Z,68.24
2019-02-04T10:29:41.093Z,68.44
2019-02-04T10:30:40.998Z,67.72
2019-02-04T10:31:41.100Z,66.96
2019-02-04T10:32:40.979Z,67.66
2019-02-04T10:33:40.971Z,67.24
2019-02-04T10:34:40.938Z,66.62
2019-02-04T10:35:40.973Z,66.83
2019-02-04T10:36:40.972Z,66.62
2019-02-04T10:37:40.910Z,65.90
2019-02-04T10:38:40.919Z,66.18
2019-02-04T10:39:40.950Z,65.84
2019-02-04T10:40:41.016Z,65.63
2019-02-04T10:41:40.896Z,64.59
2019-02-04T10:42:40.942Z,63.87
2019-02-04T10:43:40.871Z,64.67
2019-02-04T10:44:40.840Z,63.64
2019-02-04T10:45:40.859Z,63.95
2019-02-04T10:46:40.897Z,63.57
2019-02-04T10:47:40.809Z,63.06
2019-02-04T10:48:40.854Z,62.23
2019-02-04T10:49:40.830Z,62.65
2019-02-04T10:50:46.279Z,62.85
2019-02-04T10:51:41.800Z,62.95
2019-02-04T10:52:40.786Z,62.44
2019-02-04T10:53:40.813Z,62.48
2019-02-04T10:54:40.740Z,61.11
2019-02-04T10:55:40.739Z,60.77
2019-02-04T10:56:40.741Z,59.51
2019-02-04T10:57:40.978Z,59.64
2019-02-04T10:58:40.697Z,59.20
2019-02-04T10:59:40.747Z,59.74
2019-02-04T11:00:40.703Z,59.77
2019-02-04T11:01:40.697Z,60.57
2019-02-04T11:02:40.646Z,60.54
2019-02-04T11:03:40.639Z,60.00
2019-02-04T11:04:40.627Z,59.56
2019-02-04T11:05:40.652Z,58.42
2019-02-04T11:06:40.627Z,58.76
2019-02-04T11:07:40.612Z,59.04
2019-02-04T11:08:40.591Z,59.22
2019-02-04T11:09:40.636Z,58.19
2019-02-04T11:10:40.577Z,57.88
2019-02-04T11:11:40.616Z,57.57
2019-02-04T11:12:40.546Z,57.44
2019-02-04T11:13:40.535Z,57.44
2019-02-04T11:14:40.550Z,56.72
2019-02-04T11:15:40.547Z,56.49
2019-02-04T11:16:40.528Z,55.74
2019-02-04T11:17:40.537Z,55.02
2019-02-04T11:18:40.533Z,55.82
2019-02-04T11:19:40.492Z,55.23
2019-02-04T11:20:40.497Z,55.36
2019-02-04T11:21:40.464Z,55.02
2019-02-04T11:22:40.455Z,55.43
2019-02-04T11:23:40.475Z,55.26
2019-02-04T11:24:40.441Z,55.00
2019-02-04T11:25:40.432Z,53.56
2019-02-04T11:26:40.423Z,53.53
2019-02-04T11:27:40.377Z,52.73
2019-02-04T11:28:40.365Z,53.12
2019-02-04T11:29:40.381Z,54.17
2019-02-04T11:30:40.383Z,54.46
2019-02-04T11:31:40.386Z,54.05
2019-02-04T11:32:40.350Z,53.64
2019-02-04T11:33:40.352Z,53.72
2019-02-04T11:34:40.405Z,52.40
2019-02-04T11:35:40.344Z,53.58
2019-02-04T11:36:40.364Z,54.87
2019-02-04T11:37:40.278Z,55.69
2019-02-04T11:38:40.255Z,55.72
2019-02-04T11:39:40.243Z,55.93
2019-02-04T11:40:40.277Z,55.74
2019-02-04T11:41:40.277Z,56.26
2019-02-04T11:42:40.294Z,56.80
2019-02-04T11:43:40.226Z,56.70
2019-02-04T11:44:40.206Z,56.62
2019-02-04T11:45:40.203Z,57.76
2019-02-04T11:46:40.227Z,57.57
2019-02-04T11:47:40.161Z,58.01
2019-02-04T11:48:40.178Z,58.25
2019-02-04T11:49:40.154Z,58.22
2019-02-04T11:50:40.126Z,58.33
2019-02-04T11:51:40.243Z,58.30
2019-02-04T11:52:40.153Z,58.30
2019-02-04T11:53:40.119Z,58.06
2019-02-04T11:54:40.081Z,56.65
2019-02-04T11:55:40.096Z,56.75
2019-02-04T11:56:40.057Z,56.75
2019-02-04T11:57:40.063Z,56.34
2019-02-04T11:58:40.050Z,56.83
2019-02-04T11:59:40.035Z,56.83
2019-02-04T12:00:40.014Z,56.73
2019-02-04T12:01:40.004Z,55.98
2019-02-04T12:02:40.010Z,55.33
2019-02-04T12:03:39.981Z,54.30
2019-02-04T12:04:39.976Z,55.00
2019-02-04T12:05:39.968Z,53.94
2019-02-04T12:06:39.948Z,53.20
2019-02-04T12:07:39.953Z,50.73
2019-02-04T12:08:39.926Z,49.06
2019-02-04T12:09:39.919Z,48.98
2019-02-04T12:10:39.921Z,49.06
2019-02-04T12:11:39.912Z,48.96
2019-02-04T12:12:39.901Z,49.04
2019-02-04T12:13:39.874Z,48.50
2019-02-04T12:14:39.861Z,47.37
2019-02-04T12:15:39.867Z,47.53
2019-02-04T12:16:39.842Z,47.06
2019-02-04T12:17:39.844Z,47.47
2019-02-04T12:18:39.819Z,47.39
2019-02-04T12:19:39.807Z,47.70
2019-02-04T12:20:40.154Z,47.41
2019-02-04T12:21:39.807Z,47.85
2019-02-04T12:22:39.795Z,48.44
2019-02-04T12:23:39.760Z,47.74
2019-02-04T12:24:39.749Z,47.27
2019-02-04T12:25:39.738Z,49.05
2019-02-04T12:26:39.729Z,49.90
2019-02-04T12:27:39.738Z,50.12
2019-02-04T12:28:39.705Z,50.41
2019-02-04T12:29:39.692Z,50.72
2019-02-04T12:30:39.679Z,50.54
2019-02-04T12:31:39.668Z,51.07
2019-02-04T12:32:39.686Z,51.79
2019-02-04T12:33:39.648Z,52.21
2019-02-04T12:34:39.663Z,52.52
2019-02-04T12:35:39.625Z,52.21
2019-02-04T12:36:39.618Z,51.90
2019-02-04T12:37:39.623Z,52.42
2019-02-04T12:38:39.598Z,52.34
2019-02-04T12:39:39.583Z,51.84
2019-02-04T12:40:39.595Z,52.36
2019-02-04T12:41:39.566Z,52.47
2019-02-04T12:42:39.568Z,52.05
2019-02-04T12:43:39.541Z,52.15
2019-02-04T12:44:39.529Z,51.54
2019-02-04T12:45:39.520Z,52.05
2019-02-04T12:46:39.523Z,52.15
2019-02-04T12:47:39.527Z,52.26
2019-02-04T12:48:39.483Z,52.57
2019-02-04T12:49:39.474Z,52.36
2019-02-04T12:50:39.462Z,52.36
2019-02-04T12:51:39.455Z,52.15
2019-02-04T12:52:39.462Z,52.47
2019-02-04T12:53:39.433Z,51.74
2019-02-04T12:54:39.432Z,51.84
2019-02-04T12:55:39.426Z,51.95
2019-02-04T12:56:39.400Z,52.15
2019-02-04T12:57:39.440Z,51.84
2019-02-04T12:58:39.383Z,51.84
2019-02-04T12:59:39.368Z,52.03
2019-02-04T13:00:39.370Z,51.20
2019-02-04T13:01:39.395Z,51.10
2019-02-04T13:02:39.338Z,51.92
2019-02-04T13:03:39.355Z,51.82
2019-02-04T13:04:39.335Z,51.31
2019-02-04T13:05:39.307Z,51.10
2019-02-04T13:06:39.299Z,51.31
2019-02-04T13:07:39.295Z,51.41
2019-02-04T13:08:39.302Z,51.20
2019-02-04T13:09:39.288Z,51.31
2019-02-04T13:10:39.257Z,51.10
2019-02-04T13:11:39.246Z,51.10
2019-02-04T13:12:39.233Z,51.10
2019-02-04T13:13:39.243Z,50.68
2019-02-04T13:14:39.215Z,51.31
2019-02-04T13:15:39.226Z,51.84
2019-02-04T13:16:39.195Z,52.47
2019-02-04T13:17:39.189Z,51.41
2019-02-04T13:18:39.188Z,51.54
2019-02-04T13:19:40.107Z,51.10
2019-02-04T13:20:39.158Z,51.92
2019-02-04T13:21:45.625Z,51.82
2019-02-04T13:22:40.171Z,50.89
2019-02-04T13:23:39.136Z,50.66
2019-02-04T13:24:39.111Z,50.27
2019-02-04T13:25:39.104Z,50.89
2019-02-04T13:26:39.094Z,50.48
2019-02-04T13:27:39.080Z,50.29
2019-02-04T13:28:39.091Z,50.20
2019-02-04T13:29:39.058Z,51.10
2019-02-04T13:30:39.060Z,50.38
2019-02-04T13:31:39.051Z,50.27
2019-02-04T13:32:39.028Z,50.56
2019-02-04T13:33:39.041Z,51.07
2019-02-04T13:34:39.008Z,50.15
2019-02-04T13:35:39.009Z,51.18
2019-02-04T13:36:38.987Z,50.87
2019-02-04T13:37:38.995Z,50.56
2019-02-04T13:38:38.986Z,50.04
2019-02-04T13:39:38.953Z,50.38
2019-02-04T13:40:38.946Z,49.86
2019-02-04T13:41:38.939Z,49.65
2019-02-04T13:42:38.923Z,50.17
2019-02-04T13:43:38.931Z,50.79
2019-02-04T13:44:38.910Z,50.79
2019-02-04T13:45:38.892Z,49.34
2019-02-04T13:46:38.891Z,50.27
2019-02-04T13:47:38.875Z,49.86
2019-02-04T13:48:38.877Z,49.96
2019-02-04T13:49:38.854Z,50.38
2019-02-04T13:50:38.844Z,49.99
2019-02-04T13:51:38.833Z,49.37
2019-02-04T13:52:38.830Z,50.09
2019-02-04T13:53:38.831Z,50.71
2019-02-04T13:54:38.805Z,50.50
2019-02-04T13:55:38.790Z,50.29
2019-02-04T13:56:38.785Z,49.55
2019-02-04T13:57:38.771Z,49.34
2019-02-04T13:58:38.779Z,49.26
2019-02-04T13:59:38.750Z,49.16
2019-02-04T14:00:38.762Z,49.16
2019-02-04T14:01:38.743Z,49.05
2019-02-04T14:02:38.719Z,49.16
2019-02-04T14:03:38.764Z,50.09
2019-02-04T14:04:38.700Z,51.02
2019-02-04T14:05:38.690Z,51.02
2019-02-04T14:06:38.676Z,50.60
2019-02-04T14:07:38.678Z,51.02
2019-02-04T14:08:38.660Z,51.02
2019-02-04T14:09:38.663Z,49.57
2019-02-04T14:10:38.635Z,50.40
2019-02-04T14:11:38.644Z,50.50
2019-02-04T14:12:38.618Z,51.02
2019-02-04T14:13:38.614Z,51.12
2019-02-04T14:14:38.611Z,50.94
2019-02-04T14:15:38.585Z,50.40
2019-02-04T14:16:38.587Z,49.99
2019-02-04T14:17:38.568Z,50.42
2019-02-04T14:18:38.559Z,50.52
2019-02-04T14:19:38.570Z,50.84
2019-02-04T14:20:38.542Z,51.25
2019-02-04T14:21:38.525Z,50.84
2019-02-04T14:22:38.548Z,50.52
2019-02-04T14:23:38.504Z,51.04
2019-02-04T14:24:38.511Z,50.63
2019-02-04T14:25:38.482Z,50.76
2019-02-04T14:26:38.474Z,50.86
2019-02-04T14:27:38.468Z,51.15
2019-02-04T14:28:38.454Z,50.96
2019-02-04T14:29:38.456Z,50.94
2019-02-04T14:30:38.432Z,50.65
2019-02-04T14:31:38.420Z,51.28
2019-02-04T14:32:38.412Z,51.28
2019-02-04T14:33:38.398Z,51.28
2019-02-04T14:34:38.421Z,50.76
2019-02-04T14:35:38.426Z,50.84
2019-02-04T14:36:38.369Z,50.86
2019-02-04T14:37:38.361Z,51.37
2019-02-04T14:38:38.359Z,51.79
2019-02-04T14:39:38.356Z,51.04
2019-02-04T14:40:38.326Z,50.34
2019-02-04T14:41:38.330Z,50.86
2019-02-04T14:42:38.317Z,50.96
2019-02-04T14:43:38.295Z,50.65
2019-02-04T14:44:38.302Z,50.65
2019-02-04T14:45:38.276Z,51.09
2019-02-04T14:46:38.274Z,50.24
2019-02-04T14:47:38.263Z,51.09
2019-02-04T14:48:38.243Z,50.89
2019-02-04T14:49:38.253Z,50.68
2019-02-04T14:50:38.225Z,50.89
2019-02-04T14:51:38.211Z,51.07
2019-02-04T14:52:38.202Z,51.40
2019-02-04T14:53:38.204Z,51.28
2019-02-04T14:54:38.388Z,51.19
2019-02-04T14:55:38.174Z,50.78
2019-02-04T14:56:38.162Z,51.40
2019-02-04T14:57:38.154Z,51.40
2019-02-04T14:58:38.141Z,51.29
2019-02-04T14:59:38.155Z,51.40
2019-02-04T15:00:38.127Z,51.19
2019-02-04T15:01:38.151Z,51.19
2019-02-04T15:02:38.100Z,51.19
2019-02-04T15:03:38.092Z,50.57
2019-02-04T15:04:38.105Z,50.78
2019-02-04T15:05:38.067Z,51.19
2019-02-04T15:06:38.056Z,51.40
2019-02-04T15:07:38.055Z,50.89
2019-02-04T15:08:38.037Z,51.09
2019-02-04T15:09:38.033Z,51.40
2019-02-04T15:10:38.037Z,50.90
2019-02-04T15:11:38.007Z,51.29
2019-02-04T15:12:37.998Z,51.50
2019-02-04T15:13:37.988Z,51.29
2019-02-04T15:14:37.985Z,50.57
2019-02-04T15:15:37.982Z,50.70
2019-02-04T15:16:37.952Z,50.68
2019-02-04T15:17:37.958Z,51.61
2019-02-04T15:18:37.965Z,51.09
2019-02-04T15:19:38.001Z,51.01
2019-02-04T15:20:37.938Z,51.19
2019-02-04T15:21:37.919Z,50.89
2019-02-04T15:22:37.893Z,51.19
2019-02-04T15:23:37.881Z,50.99
2019-02-04T15:24:37.879Z,51.01
2019-02-04T15:25:37.888Z,51.19
2019-02-04T15:26:37.852Z,51.29
2019-02-04T15:27:37.848Z,50.80
2019-02-04T15:28:37.828Z,51.21
2019-02-04T15:29:46.162Z,51.09
2019-02-04T15:30:38.824Z,50.90
2019-02-04T15:31:37.796Z,51.32
2019-02-04T15:32:37.787Z,51.53
2019-02-04T15:33:37.784Z,51.92
2019-02-04T15:34:37.765Z,51.92
2019-02-04T15:35:37.777Z,50.70
2019-02-04T15:36:37.745Z,51.42
2019-02-04T15:37:37.742Z,51.11
2019-02-04T15:38:37.761Z,51.01
2019-02-04T15:39:37.714Z,51.01
2019-02-04T15:40:37.726Z,51.09
2019-02-04T15:41:37.710Z,50.60
2019-02-04T15:42:37.684Z,51.42
2019-02-04T15:43:37.672Z,50.90
2019-02-04T15:44:37.667Z,50.90
2019-02-04T15:45:37.673Z,51.42
2019-02-04T15:46:37.684Z,50.90
2019-02-04T15:47:37.628Z,50.70
2019-02-04T15:48:37.619Z,51.21
2019-02-04T15:49:37.609Z,51.84
2019-02-04T15:50:37.621Z,51.53
2019-02-04T15:51:37.591Z,52.15
2019-02-04T15:52:45.119Z,52.46
2019-02-04T15:53:38.566Z,52.46
2019-02-04T15:54:37.557Z,52.36
2019-02-04T15:55:39.964Z,52.04
2019-02-04T15:56:37.540Z,52.04
2019-02-04T15:57:37.532Z,51.94
2019-02-04T15:58:37.528Z,51.94
2019-02-04T15:59:37.504Z,52.25
2019-02-04T16:00:37.495Z,52.36
2019-02-04T16:01:37.502Z,52.15
2019-02-04T16:02:37.483Z,51.73
2019-02-04T16:03:37.467Z,52.04
2019-02-04T16:04:37.459Z,52.67
2019-02-04T16:05:37.442Z,52.15
2019-02-04T16:06:37.446Z,52.04
2019-02-04T16:07:37.421Z,52.04
2019-02-04T16:08:37.411Z,51.94
2019-02-04T16:09:37.406Z,51.94
2019-02-04T16:10:37.394Z,52.04
2019-02-04T16:11:37.463Z,52.04
2019-02-04T16:12:37.367Z,52.04
2019-02-04T16:13:37.363Z,52.04
2019-02-04T16:14:37.349Z,52.04
2019-02-04T16:15:37.351Z,52.36
2019-02-04T16:16:37.381Z,52.15
2019-02-04T16:17:37.316Z,52.15
2019-02-04T16:18:37.304Z,51.94
2019-02-04T16:19:37.296Z,51.55
2019-02-04T16:20:37.287Z,51.63
2019-02-04T16:21:37.295Z,51.55
2019-02-04T16:22:37.280Z,51.94
2019-02-04T16:23:37.266Z,52.15
2019-02-04T16:24:37.240Z,52.15
2019-02-04T16:25:37.233Z,52.25
2019-02-04T16:26:37.239Z,52.04
2019-02-04T16:27:37.209Z,51.73
2019-02-04T16:28:37.204Z,52.04
2019-02-04T16:29:37.192Z,51.94
2019-02-04T16:30:37.183Z,52.25
2019-02-04T16:31:37.182Z,52.28
2019-02-04T16:32:37.156Z,52.80
2019-02-04T16:33:37.143Z,52.15
2019-02-04T16:34:37.146Z,52.15
2019-02-04T16:35:37.121Z,53.10
2019-02-04T16:36:37.135Z,52.69
2019-02-04T16:37:37.111Z,53.00
2019-02-04T16:38:37.102Z,53.18
2019-02-04T16:39:37.081Z,52.87
2019-02-04T16:40:37.084Z,53.08
2019-02-04T16:41:37.080Z,52.38
2019-02-04T16:42:37.049Z,52.38
2019-02-04T16:43:37.039Z,53.00
2019-02-04T16:44:37.043Z,52.90
2019-02-04T16:45:37.031Z,52.38
2019-02-04T16:46:37.026Z,53.00
2019-02-04T16:47:37.003Z,52.90
2019-02-04T16:48:36.995Z,52.90
2019-02-04T16:49:36.979Z,52.69
2019-02-04T16:50:36.965Z,53.52
2019-02-04T16:51:36.984Z,53.39
2019-02-04T16:52:36.950Z,53.52
2019-02-04T16:53:36.939Z,53.20
2019-02-04T16:54:36.925Z,53.20
2019-02-04T16:55:36.910Z,54.03
2019-02-04T16:56:36.932Z,53.28
2019-02-04T16:57:36.913Z,53.31
2019-02-04T16:58:36.878Z,53.93
2019-02-04T16:59:36.869Z,53.52
2019-02-04T17:00:36.858Z,52.69
2019-02-04T17:01:36.864Z,53.41
2019-02-04T17:02:36.854Z,54.14
2019-02-04T17:03:36.834Z,53.83
2019-02-04T17:04:36.833Z,53.72
2019-02-04T17:05:36.804Z,53.62
2019-02-04T17:06:36.800Z,53.49
2019-02-04T17:07:36.802Z,53.93
2019-02-04T17:08:36.800Z,53.41
2019-02-04T17:09:36.760Z,53.49
2019-02-04T17:10:36.760Z,53.49
2019-02-04T17:11:36.739Z,53.41
2019-02-04T17:12:36.745Z,53.31
2019-02-04T17:13:36.727Z,54.03
2019-02-04T17:14:36.724Z,54.14
2019-02-04T17:15:36.713Z,54.03
2019-02-04T17:16:36.685Z,54.35
2019-02-04T17:17:36.691Z,53.93
2019-02-04T17:18:36.664Z,54.06
2019-02-04T17:19:36.653Z,54.03
2019-02-04T17:20:36.661Z,54.14
2019-02-04T17:21:36.647Z,54.24
2019-02-04T17:22:36.639Z,54.45
2019-02-04T17:23:36.611Z,54.35
2019-02-04T17:24:36.599Z,54.55
2019-02-04T17:25:36.590Z,54.45
2019-02-04T17:26:36.589Z,54.66
2019-02-04T17:27:36.613Z,55.07
2019-02-04T17:28:36.558Z,55.20
2019-02-04T17:29:36.547Z,55.18
2019-02-04T17:30:36.538Z,55.28
2019-02-04T17:31:36.529Z,55.41
2019-02-04T17:32:36.536Z,54.58
2019-02-04T17:33:36.521Z,55.10
2019-02-04T17:34:36.493Z,54.99
2019-02-04T17:35:36.514Z,55.30
2019-02-04T17:36:36.478Z,55.18
2019-02-04T17:37:36.487Z,54.99
2019-02-04T17:38:36.462Z,55.07
2019-02-04T17:39:36.451Z,55.28
2019-02-04T17:40:36.434Z,54.79
2019-02-04T17:41:36.420Z,55.07
2019-02-04T17:42:36.418Z,54.89
2019-02-04T17:43:36.427Z,55.20
2019-02-04T17:44:36.391Z,54.97
2019-02-04T17:45:36.386Z,54.86
2019-02-04T17:46:36.373Z,55.69
2019-02-04T17:47:36.356Z,56.13
2019-02-04T17:48:36.365Z,57.24
2019-02-04T17:49:36.338Z,58.20
2019-02-04T17:50:36.330Z,59.14
2019-02-04T17:51:36.451Z,59.47
2019-02-04T17:52:36.302Z,59.89
2019-02-04T17:53:36.313Z,60.93
2019-02-04T17:54:36.281Z,61.16
2019-02-04T17:55:36.275Z,61.05
2019-02-04T17:56:36.265Z,60.43
2019-02-04T17:57:36.255Z,60.53
2019-02-04T17:58:36.272Z,60.33
2019-02-04T17:59:36.272Z,59.30
2019-02-04T18:00:36.217Z,59.40
2019-02-04T18:01:36.209Z,58.98
2019-02-04T18:02:36.258Z,58.75
2019-02-04T18:03:36.208Z,58.54
2019-02-04T18:04:36.220Z,58.12
2019-02-04T18:05:36.162Z,57.92
2019-02-04T18:06:36.158Z,58.23
2019-02-04T18:07:36.143Z,58.23
2019-02-04T18:08:36.165Z,56.78
2019-02-04T18:09:36.130Z,56.88
2019-02-04T18:10:36.117Z,57.09
2019-02-04T18:11:36.102Z,56.57
2019-02-04T18:12:36.089Z,56.88
2019-02-04T18:13:36.102Z,56.68
2019-02-04T18:14:36.074Z,56.26
2019-02-04T18:15:36.066Z,56.05
2019-02-04T18:16:36.046Z,56.37
2019-02-04T18:17:36.038Z,56.26
2019-02-04T18:18:36.043Z,56.78
2019-02-04T18:19:36.018Z,56.37
2019-02-04T18:20:36.003Z,56.47
2019-02-04T18:21:35.999Z,56.68
2019-02-04T18:22:35.990Z,56.78
2019-02-04T18:23:45.512Z,56.57
2019-02-04T18:24:36.963Z,57.09
2019-02-04T18:25:35.951Z,56.37
2019-02-04T18:26:35.951Z,56.57
2019-02-04T18:27:36.070Z,56.26
2019-02-04T18:28:35.922Z,56.47
2019-02-04T18:29:35.928Z,56.57
2019-02-04T18:30:35.904Z,56.57
2019-02-04T18:31:35.890Z,56.47
2019-02-04T18:32:35.883Z,56.54
2019-02-04T18:33:35.898Z,56.47
2019-02-04T18:34:35.860Z,56.57
2019-02-04T18:35:35.844Z,56.57
2019-02-04T18:36:35.839Z,56.47
2019-02-04T18:37:35.821Z,56.37
2019-02-04T18:38:35.839Z,56.26
2019-02-04T18:39:35.815Z,56.78
2019-02-04T18:40:35.796Z,56.16
2019-02-04T18:41:35.777Z,55.74
2019-02-04T18:42:35.769Z,56.26
2019-02-04T18:43:35.773Z,56.34
2019-02-04T18:44:35.745Z,56.13
2019-02-04T18:45:35.746Z,56.34
2019-02-04T18:46:35.727Z,56.03
2019-02-04T18:47:35.720Z,56.13
2019-02-04T18:48:35.730Z,56.03
2019-02-04T18:49:35.694Z,55.93
2019-02-04T18:50:35.780Z,56.24
2019-02-04T18:51:35.688Z,55.51
2019-02-04T18:52:37.135Z,55.41
2019-02-04T18:53:35.694Z,55.51
2019-02-04T18:54:35.643Z,55.41
2019-02-04T18:55:35.647Z,55.62
2019-02-04T18:56:35.648Z,55.62
2019-02-04T18:57:35.628Z,56.13
2019-02-04T18:58:35.641Z,55.82
2019-02-04T18:59:35.587Z,56.34
2019-02-04T19:00:35.628Z,56.13
2019-02-04T19:01:35.610Z,55.82
2019-02-04T19:02:35.565Z,55.41
2019-02-04T19:03:35.566Z,55.93
2019-02-04T19:04:35.571Z,55.82
2019-02-04T19:05:35.529Z,55.93
2019-02-04T19:06:47.110Z,55.51
2019-02-04T19:07:36.506Z,56.24
2019-02-04T19:08:35.495Z,56.13
2019-02-04T19:09:35.501Z,56.03
2019-02-04T19:10:35.509Z,56.54
2019-02-04T19:11:35.458Z,56.13
2019-02-04T19:12:35.448Z,55.72
2019-02-04T19:13:36.501Z,55.49
2019-02-04T19:14:35.463Z,56.54
2019-02-04T19:15:35.428Z,55.62
2019-02-04T19:16:35.407Z,56.24
2019-02-04T19:17:35.401Z,56.24
2019-02-04T19:18:35.384Z,56.24
2019-02-04T19:19:35.423Z,56.13
2019-02-04T19:20:35.374Z,56.13
2019-02-04T19:21:38.215Z,56.03
2019-02-04T19:22:35.349Z,56.13
2019-02-04T19:23:35.374Z,56.24
2019-02-04T19:24:35.521Z,56.54
2019-02-04T19:25:35.320Z,56.44
2019-02-04T19:26:35.301Z,56.24
2019-02-04T19:27:35.293Z,56.03
2019-02-04T19:28:35.283Z,56.34
2019-02-04T19:29:35.312Z,56.54